createdAt,value
2022-11-16T00:01:05.005Z,-8.79
2022-11-16T00:04:07.966Z,-8.72
2022-11-16T00:07:12.175Z,-8.75
2022-11-16T00:10:16.091Z,-8.65
2022-11-16T00:13:20.381Z,-8.42
2022-11-16T00:16:23.927Z,-8.32
2022-11-16T00:19:28.188Z,-8.37
2022-11-16T00:22:31.887Z,-8.36
2022-11-16T00:25:35.508Z,-8.27
2022-11-16T00:28:39.088Z,-8.39
2022-11-16T00:31:45.426Z,-8.54
2022-11-16T00:34:49.049Z,-8.61
2022-11-16T00:37:53.228Z,-8.59
2022-11-16T00:40:57.150Z,-8.76
2022-11-16T00:44:01.174Z,-8.79
2022-11-16T00:47:04.030Z,-8.65
2022-11-16T00:50:08.218Z,-8.67
2022-11-16T00:53:14.750Z,-8.72
2022-11-16T00:56:18.001Z,-8.67
2022-11-16T00:59:21.815Z,-8.57
2022-11-16T01:02:30.053Z,-8.40
2022-11-16T01:05:33.068Z,-8.15
2022-11-16T01:08:38.889Z,-8.01
2022-11-16T01:12:01.017Z,-7.66
2022-11-16T01:15:10.074Z,-7.23
2022-11-16T01:18:13.673Z,-7.33
2022-11-16T01:21:17.633Z,-7.28
2022-11-16T01:24:20.510Z,-6.94
2022-11-16T01:27:24.519Z,-6.91
2022-11-16T01:30:29.305Z,-6.82
2022-11-16T01:33:38.998Z,-6.54
2022-11-16T01:36:46.808Z,-6.39
2022-11-16T01:39:52.053Z,-6.06
2022-11-16T01:42:55.761Z,-5.81
2022-11-16T01:45:59.759Z,-5.86
2022-11-16T01:49:16.793Z,-5.90
2022-11-16T01:52:26.197Z,-5.76
2022-11-16T01:55:32.977Z,-5.73
2022-11-16T01:58:55.861Z,-5.78
2022-11-16T02:02:02.533Z,-5.77
2022-11-16T02:05:08.233Z,-5.57
2022-11-16T02:08:54.538Z,-5.49
2022-11-16T02:12:29.397Z,-5.45
2022-11-16T02:15:35.639Z,-4.98
2022-11-16T02:19:06.795Z,-4.93
2022-11-16T02:22:48.011Z,-4.77
2022-11-16T02:26:22.975Z,-3.94
2022-11-16T02:29:34.852Z,-3.76
2022-11-16T02:32:57.831Z,-3.17
2022-11-16T02:36:03.710Z,-2.68
2022-11-16T02:39:16.555Z,-2.40
2022-11-16T02:42:26.797Z,-2.60
2022-11-16T02:45:36.977Z,-2.50
2022-11-16T02:48:47.404Z,-2.64
2022-11-16T02:51:53.078Z,-2.73
2022-11-16T02:54:56.640Z,-2.83
2022-11-16T02:58:03.164Z,-2.99
2022-11-16T03:01:15.235Z,-2.90
2022-11-16T03:04:31.430Z,-2.77
2022-11-16T03:08:06.240Z,-2.83
2022-11-16T03:11:30.266Z,-2.71
2022-11-16T03:15:00.525Z,-2.69
2022-11-16T03:18:05.527Z,-2.81
2022-11-16T03:21:19.331Z,-2.80
2022-11-16T03:24:24.122Z,-2.93
2022-11-16T03:27:39.388Z,-2.83
2022-11-16T03:30:51.498Z,-2.61
2022-11-16T03:33:58.837Z,-2.64
2022-11-16T03:37:04.929Z,-2.57
2022-11-16T03:40:13.735Z,-2.47
2022-11-16T03:43:20.911Z,-2.36
2022-11-16T03:46:25.773Z,-2.28
2022-11-16T03:49:31.624Z,-2.20
2022-11-16T03:52:36.514Z,-2.10
2022-11-16T03:55:40.220Z,-2.14
2022-11-16T03:58:47.893Z,-2.12
2022-11-16T04:01:50.860Z,-2.09
2022-11-16T04:05:14.483Z,-1.75
2022-11-16T04:08:37.298Z,-1.48
2022-11-16T04:12:00.328Z,-1.33
2022-11-16T04:15:22.259Z,-1.28
2022-11-16T04:18:44.794Z,-1.10
2022-11-16T04:22:15.430Z,-0.90
2022-11-16T04:25:28.212Z,-1.02
2022-11-16T04:28:34.781Z,-1.09
2022-11-16T04:31:59.756Z,-1.11
2022-11-16T04:35:22.213Z,-1.04
2022-11-16T04:38:26.270Z,-0.96
2022-11-16T04:41:50.334Z,-0.79
2022-11-16T04:45:13.079Z,-0.82
2022-11-16T04:48:28.218Z,-0.92
2022-11-16T04:51:32.549Z,-1.03
2022-11-16T04:54:36.272Z,-1.05
2022-11-16T04:57:39.736Z,-1.12
2022-11-16T05:00:43.883Z,-1.17
2022-11-16T05:03:47.798Z,-1.22
2022-11-16T05:06:51.662Z,-1.25
2022-11-16T05:09:56.034Z,-1.26
2022-11-16T05:12:59.534Z,-1.23
2022-11-16T05:16:03.862Z,-1.18
2022-11-16T05:19:25.964Z,-1.21
2022-11-16T05:22:30.007Z,-1.10
2022-11-16T05:25:36.920Z,-1.18
2022-11-16T05:28:45.201Z,-1.36
2022-11-16T05:31:50.069Z,-1.16
2022-11-16T05:34:54.682Z,-1.19
2022-11-16T05:37:59.044Z,-1.12
2022-11-16T05:41:03.295Z,-0.94
2022-11-16T05:44:07.479Z,-0.79
2022-11-16T05:47:10.777Z,-0.83
2022-11-16T05:50:14.088Z,-0.86
2022-11-16T05:53:22.251Z,-1.18
2022-11-16T05:56:26.149Z,-1.18
2022-11-16T05:59:30.653Z,-1.25
2022-11-16T06:02:36.251Z,-1.32
2022-11-16T06:05:40.843Z,-1.30
2022-11-16T06:08:48.482Z,-1.37
2022-11-16T06:11:56.922Z,-1.22
2022-11-16T06:15:00.838Z,-1.28
2022-11-16T06:18:04.710Z,-1.21
2022-11-16T06:21:09.184Z,-1.13
2022-11-16T06:24:13.145Z,-1.16
2022-11-16T06:27:18.361Z,-1.09
2022-11-16T06:30:21.967Z,-0.92
2022-11-16T06:33:30.829Z,-0.70
2022-11-16T06:36:40.132Z,-0.57
2022-11-16T06:39:43.593Z,-0.65
2022-11-16T06:42:47.519Z,-0.90
2022-11-16T06:45:56.985Z,-0.90
2022-11-16T06:49:00.311Z,-0.80
2022-11-16T06:52:04.104Z,-0.85
2022-11-16T06:55:07.635Z,-0.90
2022-11-16T06:58:13.130Z,-0.81
2022-11-16T07:01:18.755Z,-0.81
2022-11-16T07:04:25.293Z,-0.70
2022-11-16T07:07:33.003Z,-0.65
2022-11-16T07:10:39.650Z,-0.84
2022-11-16T07:13:43.946Z,-0.93
2022-11-16T07:16:48.111Z,-0.88
2022-11-16T07:19:51.470Z,-0.84
2022-11-16T07:22:56.077Z,-0.78
2022-11-16T07:26:05.533Z,-0.62
2022-11-16T07:29:27.181Z,-0.78
2022-11-16T07:32:51.865Z,-1.11
2022-11-16T07:36:27.936Z,-1.31
2022-11-16T07:39:32.869Z,-1.44
2022-11-16T07:42:36.657Z,-1.51
2022-11-16T07:45:49.510Z,-1.49
2022-11-16T07:48:53.589Z,-1.44
2022-11-16T07:52:14.770Z,-1.37
2022-11-16T07:55:33.072Z,-1.27
2022-11-16T07:58:38.338Z,-1.24
2022-11-16T08:01:44.469Z,-1.11
2022-11-16T08:04:48.175Z,-1.12
2022-11-16T08:07:52.442Z,-1.19
2022-11-16T08:11:04.743Z,-1.21
2022-11-16T08:14:09.034Z,-1.12
2022-11-16T08:17:12.454Z,-1.09
2022-11-16T08:20:17.707Z,-1.08
2022-11-16T08:23:23.237Z,-1.09
2022-11-16T08:26:28.453Z,-1.12
2022-11-16T08:29:40.878Z,-1.14
2022-11-16T08:32:46.594Z,-1.22
2022-11-16T08:36:14.020Z,-1.25
2022-11-16T08:39:18.710Z,-1.15
2022-11-16T08:42:22.077Z,-1.20
2022-11-16T08:45:25.731Z,-1.17
2022-11-16T08:48:32.815Z,-1.23
2022-11-16T08:51:37.044Z,-1.26
2022-11-16T08:54:41.944Z,-1.35
2022-11-16T08:57:45.965Z,-1.38
2022-11-16T09:00:53.219Z,-1.37
2022-11-16T09:03:57.240Z,-1.26
2022-11-16T09:07:00.215Z,-1.14
2022-11-16T09:10:03.515Z,-1.18
2022-11-16T09:13:07.228Z,-1.20
2022-11-16T09:16:11.690Z,-1.11
2022-11-16T09:19:14.964Z,-1.01
2022-11-16T09:22:18.984Z,-1.04
2022-11-16T09:25:24.020Z,-1.04
2022-11-16T09:28:28.168Z,-1.06
2022-11-16T09:31:35.138Z,-1.12
2022-11-16T09:34:39.064Z,-1.17
2022-11-16T09:37:41.888Z,-1.16
2022-11-16T09:40:48.405Z,-1.14
2022-11-16T09:44:23.786Z,-1.05
2022-11-16T09:47:53.080Z,-1.06
2022-11-16T09:51:02.293Z,-1.08
2022-11-16T09:54:10.326Z,-0.94
2022-11-16T09:57:19.641Z,-0.83
2022-11-16T10:00:24.538Z,-0.73
2022-11-16T10:03:29.910Z,-0.63
2022-11-16T10:07:05.026Z,-0.57
2022-11-16T10:10:17.519Z,-0.54
2022-11-16T10:13:38.341Z,-0.56
2022-11-16T10:17:14.904Z,-0.49
2022-11-16T10:20:42.469Z,-0.42
2022-11-16T10:23:52.529Z,-0.35
2022-11-16T10:26:59.990Z,-0.31
2022-11-16T10:30:20.302Z,-0.28
2022-11-16T10:33:25.535Z,-0.30
2022-11-16T10:36:33.221Z,-0.37
2022-11-16T10:39:41.139Z,-0.36
2022-11-16T10:42:46.408Z,-0.37
2022-11-16T10:46:13.575Z,-0.41
2022-11-16T10:49:29.808Z,-0.47
2022-11-16T10:52:33.777Z,-0.39
2022-11-16T10:55:37.486Z,-0.41
2022-11-16T10:59:08.622Z,-0.45
2022-11-16T11:02:31.965Z,-0.72
2022-11-16T11:05:37.123Z,-0.83
2022-11-16T11:08:40.741Z,-0.96
2022-11-16T11:12:35.967Z,-0.99
2022-11-16T11:15:41.317Z,-1.10
2022-11-16T11:18:45.318Z,-1.25
2022-11-16T11:21:49.985Z,-1.15
2022-11-16T11:24:54.773Z,-0.93
2022-11-16T11:28:32.369Z,-0.78
2022-11-16T11:31:47.441Z,-0.77
2022-11-16T11:34:54.657Z,-0.89
2022-11-16T11:38:07.705Z,-0.81
2022-11-16T11:41:19.865Z,-0.97
2022-11-16T11:44:26.550Z,-1.24
2022-11-16T11:47:58.086Z,-1.40
2022-11-16T11:51:41.476Z,-1.52
2022-11-16T11:54:50.058Z,-1.55
2022-11-16T11:57:55.082Z,-1.57
2022-11-16T12:01:25.682Z,-1.50
2022-11-16T12:05:01.534Z,-1.61
2022-11-16T12:08:13.100Z,-1.52
2022-11-16T12:11:49.705Z,-1.38
2022-11-16T12:15:11.288Z,-1.27
2022-11-16T12:18:33.389Z,-1.24
2022-11-16T12:22:19.575Z,-1.43
2022-11-16T12:25:32.346Z,-1.47
2022-11-16T12:28:51.524Z,-1.41
2022-11-16T12:32:14.061Z,-1.31
2022-11-16T12:35:20.790Z,-1.24
2022-11-16T12:38:43.024Z,-1.21
2022-11-16T12:42:04.597Z,-1.37
2022-11-16T12:45:41.852Z,-1.47
2022-11-16T12:48:45.533Z,-1.38
2022-11-16T12:52:06.620Z,-1.39
2022-11-16T12:55:27.830Z,-1.46
2022-11-16T12:58:38.117Z,-1.43
2022-11-16T13:02:09.312Z,-1.17
2022-11-16T13:05:34.120Z,-0.97
2022-11-16T13:09:04.499Z,-1.13
2022-11-16T13:12:14.798Z,-1.24
2022-11-16T13:15:26.241Z,-1.19
2022-11-16T13:18:32.181Z,-1.14
2022-11-16T13:21:47.507Z,-0.91
2022-11-16T13:25:13.426Z,-0.78
2022-11-16T13:28:33.377Z,-0.94
2022-11-16T13:31:57.059Z,-1.21
2022-11-16T13:35:01.929Z,-1.41
2022-11-16T13:38:09.693Z,-1.49
2022-11-16T13:41:36.477Z,-1.54
2022-11-16T13:44:40.328Z,-1.59
2022-11-16T13:47:55.741Z,-1.53
2022-11-16T13:51:03.564Z,-1.58
2022-11-16T13:57:34.327Z,-1.40
2022-11-16T14:00:43.236Z,-1.10
2022-11-16T14:03:52.431Z,-1.18
2022-11-16T14:06:58.960Z,-1.22
2022-11-16T14:10:06.497Z,-1.12
2022-11-16T14:13:47.494Z,-0.98
2022-11-16T14:16:52.302Z,-0.94
2022-11-16T14:19:56.375Z,-1.05
2022-11-16T14:23:02.972Z,-1.25
2022-11-16T14:26:14.519Z,-1.24
2022-11-16T14:29:21.504Z,-1.27
2022-11-16T14:32:29.286Z,-1.30
2022-11-16T14:35:36.000Z,-1.02
2022-11-16T14:38:43.637Z,-0.80
2022-11-16T14:41:48.699Z,-0.73
2022-11-16T14:45:05.952Z,-0.71
2022-11-16T14:48:21.837Z,-0.91
2022-11-16T14:51:30.921Z,-1.11
2022-11-16T14:54:47.676Z,-1.25
2022-11-16T14:58:25.613Z,-1.14
2022-11-16T15:01:33.890Z,-1.18
2022-11-16T15:04:39.539Z,-1.29
2022-11-16T15:07:45.235Z,-1.26
2022-11-16T15:10:52.361Z,-1.17
2022-11-16T15:13:56.874Z,-1.22
2022-11-16T15:17:01.139Z,-1.13
2022-11-16T15:20:14.135Z,-0.91
2022-11-16T15:23:19.726Z,-0.91
2022-11-16T15:26:25.135Z,-1.02
2022-11-16T15:29:28.256Z,-1.18
2022-11-16T15:32:38.915Z,-1.15
2022-11-16T15:35:42.456Z,-1.01
2022-11-16T15:38:46.426Z,-1.06
2022-11-16T15:41:50.807Z,-1.16
2022-11-16T15:44:55.398Z,-1.24
2022-11-16T15:48:02.298Z,-1.33
2022-11-16T15:51:05.387Z,-1.28
2022-11-16T15:54:27.469Z,-1.02
2022-11-16T15:57:31.453Z,-0.88
2022-11-16T16:00:38.169Z,-0.84
2022-11-16T16:03:54.541Z,-0.79
2022-11-16T16:07:01.799Z,-0.98
2022-11-16T16:10:25.591Z,-1.16
2022-11-16T16:13:33.291Z,-1.23
2022-11-16T16:16:39.342Z,-1.28
2022-11-16T16:19:53.752Z,-1.27
2022-11-16T16:23:13.954Z,-1.25
2022-11-16T16:26:18.135Z,-1.36
2022-11-16T16:29:22.027Z,-1.33
2022-11-16T16:32:33.681Z,-1.23
2022-11-16T16:35:38.378Z,-1.26
2022-11-16T16:38:42.866Z,-1.17
2022-11-16T16:41:46.724Z,-1.11
2022-11-16T16:44:51.962Z,-0.95
2022-11-16T16:47:55.580Z,-0.86
2022-11-16T16:51:00.598Z,-0.90
2022-11-16T16:54:04.955Z,-0.86
2022-11-16T16:57:15.151Z,-0.88
2022-11-16T17:00:19.224Z,-0.94
2022-11-16T17:03:23.280Z,-0.88
2022-11-16T17:06:27.787Z,-0.93
2022-11-16T17:09:32.611Z,-0.94
2022-11-16T17:12:36.324Z,-0.99
2022-11-16T17:15:43.233Z,-0.96
2022-11-16T17:18:48.215Z,-1.02
2022-11-16T17:21:53.724Z,-1.08
2022-11-16T17:24:57.467Z,-1.08
2022-11-16T17:28:02.295Z,-1.11
2022-11-16T17:31:10.607Z,-1.14
2022-11-16T17:34:18.535Z,-1.09
2022-11-16T17:37:22.911Z,-1.09
2022-11-16T17:40:27.796Z,-1.13
2022-11-16T17:43:34.913Z,-1.11
2022-11-16T17:46:39.934Z,-1.01
2022-11-16T17:49:44.249Z,-0.92
2022-11-16T17:52:49.413Z,-0.97
2022-11-16T17:55:54.605Z,-0.83
2022-11-16T17:59:01.716Z,-0.93
2022-11-16T18:02:11.512Z,-1.06
2022-11-16T18:05:16.164Z,-1.02
2022-11-16T18:08:19.754Z,-0.99
2022-11-16T18:11:26.343Z,-1.01
2022-11-16T18:14:30.847Z,-0.88
2022-11-16T18:17:35.867Z,-0.82
2022-11-16T18:20:43.207Z,-0.94
2022-11-16T18:23:49.286Z,-0.95
2022-11-16T18:26:52.792Z,-0.89
2022-11-16T18:29:56.459Z,-0.74
2022-11-16T18:33:00.929Z,-0.55
2022-11-16T18:36:05.984Z,-0.44
2022-11-16T18:39:10.229Z,-0.52
2022-11-16T18:42:14.238Z,-0.63
2022-11-16T18:45:18.638Z,-0.72
2022-11-16T18:48:21.563Z,-0.62
2022-11-16T18:51:26.853Z,-0.45
2022-11-16T18:54:30.054Z,-0.25
2022-11-16T18:57:33.239Z,-0.03
2022-11-16T19:00:36.916Z,0.02
2022-11-16T19:03:41.083Z,-0.12
2022-11-16T19:06:44.689Z,-0.12
2022-11-16T19:09:48.302Z,-0.06
2022-11-16T19:12:52.006Z,-0.04
2022-11-16T19:15:56.287Z,-0.12
2022-11-16T19:19:02.097Z,-0.15
2022-11-16T19:22:05.641Z,-0.23
2022-11-16T19:25:10.132Z,-0.27
2022-11-16T19:28:13.726Z,-0.32
2022-11-16T19:31:21.214Z,-0.37
2022-11-16T19:34:26.742Z,-0.50
2022-11-16T19:37:33.718Z,-0.56
2022-11-16T19:40:38.507Z,-0.72
2022-11-16T19:43:42.224Z,-0.74
2022-11-16T19:46:45.479Z,-0.81
2022-11-16T19:49:50.977Z,-0.84
2022-11-16T19:52:54.008Z,-0.83
2022-11-16T19:55:57.936Z,-0.83
2022-11-16T19:59:01.556Z,-0.89
2022-11-16T20:02:05.493Z,-0.92
2022-11-16T20:05:09.587Z,-1.14
2022-11-16T20:08:12.762Z,-1.20
2022-11-16T20:11:30.581Z,-1.18
2022-11-16T20:14:34.487Z,-1.29
2022-11-16T20:17:38.055Z,-1.36
2022-11-16T20:20:42.025Z,-1.43
2022-11-16T20:23:46.070Z,-1.53
2022-11-16T20:26:50.548Z,-1.70
2022-11-16T20:29:54.113Z,-1.73
2022-11-16T20:32:57.801Z,-1.82
2022-11-16T20:36:06.758Z,-1.97
2022-11-16T20:39:14.878Z,-2.09
2022-11-16T20:42:20.321Z,-2.09
2022-11-16T20:45:23.197Z,-2.22
2022-11-16T20:48:26.757Z,-2.27
2022-11-16T20:51:30.360Z,-2.34
2022-11-16T20:54:33.988Z,-2.40
2022-11-16T20:57:36.920Z,-2.33
2022-11-16T21:00:40.597Z,-2.13
2022-11-16T21:03:47.324Z,-2.13
2022-11-16T21:06:51.107Z,-2.06
2022-11-16T21:10:13.419Z,-2.19
2022-11-16T21:13:36.463Z,-2.21
2022-11-16T21:16:39.627Z,-2.35
2022-11-16T21:19:59.483Z,-2.42
2022-11-16T21:23:06.536Z,-2.53
2022-11-16T21:26:14.556Z,-2.42
2022-11-16T21:29:17.824Z,-2.27
2022-11-16T21:32:21.778Z,-2.28
2022-11-16T21:35:27.841Z,-2.30
2022-11-16T21:38:32.969Z,-2.27
2022-11-16T21:41:37.011Z,-2.29
2022-11-16T21:44:42.743Z,-2.21
2022-11-16T21:47:45.636Z,-2.14
2022-11-16T21:50:48.516Z,-2.13
2022-11-16T21:53:52.135Z,-2.24
2022-11-16T21:56:55.780Z,-2.31
2022-11-16T21:59:59.022Z,-2.47
2022-11-16T22:03:02.771Z,-2.41
2022-11-16T22:06:26.093Z,-2.51
2022-11-16T22:09:29.621Z,-2.39
2022-11-16T22:12:32.651Z,-2.66
2022-11-16T22:15:35.505Z,-2.67
2022-11-16T22:18:39.493Z,-2.54
2022-11-16T22:21:42.568Z,-2.55
2022-11-16T22:24:46.269Z,-2.50
2022-11-16T22:28:19.089Z,-2.54
2022-11-16T22:31:15.305Z,-2.49
2022-11-16T22:34:18.952Z,-2.54
2022-11-16T22:37:23.266Z,-2.68
2022-11-16T22:40:26.559Z,-2.66
2022-11-16T22:43:33.541Z,-2.65
2022-11-16T22:46:37.348Z,-2.50
2022-11-16T22:49:41.221Z,-2.40
2022-11-16T22:52:44.064Z,-2.25
2022-11-16T22:55:48.039Z,-2.15
2022-11-16T22:58:51.881Z,-2.13
2022-11-16T23:01:55.877Z,-2.11
2022-11-16T23:04:58.698Z,-1.96
2022-11-16T23:08:01.676Z,-1.82
2022-11-16T23:11:25.982Z,-1.53
2022-11-16T23:14:47.966Z,-1.25
2022-11-16T23:17:51.911Z,-1.11
2022-11-16T23:21:14.030Z,-1.01
2022-11-16T23:24:35.494Z,-0.90
2022-11-16T23:28:03.215Z,-0.86
2022-11-16T23:31:06.120Z,-0.88
2022-11-16T23:34:09.665Z,-0.88
2022-11-16T23:37:13.656Z,-1.08
2022-11-16T23:40:16.895Z,-1.28
2022-11-16T23:43:39.153Z,-1.43
2022-11-16T23:46:42.136Z,-1.39
2022-11-16T23:49:45.119Z,-1.28
2022-11-16T23:52:48.070Z,-1.18
2022-11-16T23:55:52.030Z,-1.03
2022-11-16T23:58:57.945Z,-0.90
